sensor_id;sensor_type;location;lat;lon;timestamp;pressure;altitude;pressure_sealevel;temperature;humidity
3444;BME280;1736;52.068;6.968;2023-02-23T00:02:15;100729.94;;;8.73;100.00
3444;BME280;1736;52.068;6.968;2023-02-23T00:04:43;100725.84;;;8.69;100.00
3444;BME280;1736;52.068;6.968;2023-02-23T00:07:10;100726.91;;;8.66;100.00
3444;BME280;1736;52.068;6.968;2023-02-23T00:09:37;100726.69;;;8.69;100.00
3444;BME280;1736;52.068;6.968;2023-02-23T00:12:05;100740.63;;;8.71;100.00
3444;BME280;1736;52.068;6.968;2023-02-23T00:14:33;100728.16;;;8.73;100.00
3444;BME280;1736;52.068;6.968;2023-02-23T00:17:02;100734.53;;;8.71;100.00
3444;BME280;1736;52.068;6.968;2023-02-23T00:19:28;100728.38;;;8.70;100.00
3444;BME280;1736;52.068;6.968;2023-02-23T00:21:58;100731.63;;;8.74;100.00
3444;BME280;1736;52.068;6.968;2023-02-23T00:24:25;100727.31;;;8.73;100.00
3444;BME280;1736;52.068;6.968;2023-02-23T00:26:52;100728.38;;;8.70;100.00
3444;BME280;1736;52.068;6.968;2023-02-23T00:29:20;100725.72;;;8.70;100.00
3444;BME280;1736;52.068;6.968;2023-02-23T00:31:47;100733.06;;;8.67;100.00
3444;BME280;1736;52.068;6.968;2023-02-23T00:34:16;100731.25;;;8.67;100.00
3444;BME280;1736;52.068;6.968;2023-02-23T00:36:49;100716.72;;;8.73;100.00
3444;BME280;1736;52.068;6.968;2023-02-23T00:39:17;100722.50;;;8.67;100.00
3444;BME280;1736;52.068;6.968;2023-02-23T00:41:46;100714.66;;;8.65;100.00
3444;BME280;1736;52.068;6.968;2023-02-23T00:44:13;100716.13;;;8.69;100.00
3444;BME280;1736;52.068;6.968;2023-02-23T00:46:40;100720.56;;;8.69;100.00
3444;BME280;1736;52.068;6.968;2023-02-23T00:49:08;100720.56;;;8.69;100.00
3444;BME280;1736;52.068;6.968;2023-02-23T00:51:36;100717.19;;;8.67;100.00
3444;BME280;1736;52.068;6.968;2023-02-23T00:54:04;100715.38;;;8.67;100.00
3444;BME280;1736;52.068;6.968;2023-02-23T00:56:32;100722.22;;;8.70;100.00
3444;BME280;1736;52.068;6.968;2023-02-23T00:58:59;100721.41;;;8.69;100.00
3444;BME280;1736;52.068;6.968;2023-02-23T01:01:26;100722.22;;;8.70;100.00
3444;BME280;1736;52.068;6.968;2023-02-23T01:03:52;100728.38;;;8.70;100.00
3444;BME280;1736;52.068;6.968;2023-02-23T01:06:19;100725.00;;;8.68;100.00
3444;BME280;1736;52.068;6.968;2023-02-23T01:08:47;100734.63;;;8.69;100.00
3444;BME280;1736;52.068;6.968;2023-02-23T01:11:16;100732.94;;;8.68;100.00
3444;BME280;1736;52.068;6.968;2023-02-23T01:13:44;100725.84;;;8.69;100.00
3444;BME280;1736;52.068;6.968;2023-02-23T01:16:14;100728.38;;;8.70;100.00
3444;BME280;1736;52.068;6.968;2023-02-23T01:18:41;100726.91;;;8.66;100.00
3444;BME280;1736;52.068;6.968;2023-02-23T01:21:13;100730.28;;;8.68;100.00
3444;BME280;1736;52.068;6.968;2023-02-23T01:23:40;100724.38;;;8.65;100.00
3444;BME280;1736;52.068;6.968;2023-02-23T01:26:14;100723.19;;;8.69;100.00
3444;BME280;1736;52.068;6.968;2023-02-23T01:28:40;100724.38;;;8.65;100.00
3444;BME280;1736;52.068;6.968;2023-02-23T01:31:08;100726.91;;;8.66;100.00
3444;BME280;1736;52.068;6.968;2023-02-23T01:33:35;100725.94;;;8.67;100.00
3444;BME280;1736;52.068;6.968;2023-02-23T01:36:01;100718.50;;;8.61;100.00
3444;BME280;1736;52.068;6.968;2023-02-23T01:38:27;100719.47;;;8.60;100.00
3444;BME280;1736;52.068;6.968;2023-02-23T01:40:54;100718.50;;;8.61;100.00
3444;BME280;1736;52.068;6.968;2023-02-23T01:43:21;100715.97;;;8.60;100.00
3444;BME280;1736;52.068;6.968;2023-02-23T01:45:53;100719.56;;;8.59;100.00
3444;BME280;1736;52.068;6.968;2023-02-23T01:48:24;100721.97;;;8.62;100.00
3444;BME280;1736;52.068;6.968;2023-02-23T01:50:56;100721.47;;;8.57;100.00
3444;BME280;1736;52.068;6.968;2023-02-23T01:53:24;100723.78;;;8.61;100.00
3444;BME280;1736;52.068;6.968;2023-02-23T01:55:55;100724.00;;;8.58;100.00
3444;BME280;1736;52.068;6.968;2023-02-23T01:58:23;100720.66;;;8.56;100.00
3444;BME280;1736;52.068;6.968;2023-02-23T02:00:55;100712.81;;;8.55;100.00
3444;BME280;1736;52.068;6.968;2023-02-23T02:03:29;100718.94;;;8.55;100.00
3444;BME280;1736;52.068;6.968;2023-02-23T02:05:59;100724.22;;;8.55;100.00
3444;BME280;1736;52.068;6.968;2023-02-23T02:08:28;100717.38;;;8.53;100.00
3444;BME280;1736;52.068;6.968;2023-02-23T02:10:55;100719.41;;;8.49;100.00
3444;BME280;1736;52.068;6.968;2023-02-23T02:13:24;100717.47;;;8.51;100.00
3444;BME280;1736;52.068;6.968;2023-02-23T02:16:14;100716.66;;;8.51;100.00
3444;BME280;1736;52.068;6.968;2023-02-23T02:19:00;100719.03;;;8.54;100.00
3444;BME280;1736;52.068;6.968;2023-02-23T02:22:03;100715.56;;;8.53;100.00
3444;BME280;1736;52.068;6.968;2023-02-23T02:28:03;100717.84;;;8.47;100.00
3444;BME280;1736;52.068;6.968;2023-02-23T02:30:48;100716.03;;;8.47;100.00
3444;BME280;1736;52.068;6.968;2023-02-23T02:33:33;100715.19;;;8.47;100.00
3444;BME280;1736;52.068;6.968;2023-02-23T02:36:23;100719.63;;;8.46;100.00
3444;BME280;1736;52.068;6.968;2023-02-23T02:38:59;100716.03;;;8.47;100.00
3444;BME280;1736;52.068;6.968;2023-02-23T02:41:35;100717.94;;;8.45;100.00
3444;BME280;1736;52.068;6.968;2023-02-23T02:44:14;100716.50;;;8.41;100.00
3444;BME280;1736;52.068;6.968;2023-02-23T02:46:45;100711.81;;;8.45;100.00
3444;BME280;1736;52.068;6.968;2023-02-23T02:49:20;100713.94;;;8.40;100.00
3444;BME280;1736;52.068;6.968;2023-02-23T02:51:54;100711.63;;;8.35;100.00
3444;BME280;1736;52.068;6.968;2023-02-23T02:54:28;100709.75;;;8.37;100.00
3444;BME280;1736;52.068;6.968;2023-02-23T02:56:57;100716.94;;;8.35;100.00
3444;BME280;1736;52.068;6.968;2023-02-23T02:59:25;100709.25;;;8.32;100.00
3444;BME280;1736;52.068;6.968;2023-02-23T03:02:14;100716.31;;;8.32;100.00
3444;BME280;1736;52.068;6.968;2023-02-23T03:04:59;100718.00;;;8.33;100.00
3444;BME280;1736;52.068;6.968;2023-02-23T03:07:50;100711.03;;;8.32;100.00
3444;BME280;1736;52.068;6.968;2023-02-23T03:10:45;100710.19;;;8.31;100.00
3444;BME280;1736;52.068;6.968;2023-02-23T03:13:37;100718.00;;;8.33;100.00
3444;BME280;1736;52.068;6.968;2023-02-23T03:16:34;100716.22;;;8.33;100.00
3444;BME280;1736;52.068;6.968;2023-02-23T03:19:25;100724.38;;;8.30;100.00
3444;BME280;1736;52.068;6.968;2023-02-23T03:22:16;100723.41;;;8.31;100.00
3444;BME280;1736;52.068;6.968;2023-02-23T03:25:05;100719.28;;;8.27;100.00
3444;BME280;1736;52.068;6.968;2023-02-23T03:27:58;100723.13;;;8.23;100.00
3444;BME280;1736;52.068;6.968;2023-02-23T03:30:50;100720.16;;;8.28;100.00
3444;BME280;1736;52.068;6.968;2023-02-23T03:33:41;100725.22;;;8.18;100.00
3444;BME280;1736;52.068;6.968;2023-02-23T03:36:32;100718.69;;;8.11;100.00
3444;BME280;1736;52.068;6.968;2023-02-23T03:39:21;100728.53;;;8.09;100.00
3444;BME280;1736;52.068;6.968;2023-02-23T03:42:10;100722.88;;;8.03;100.00
3444;BME280;1736;52.068;6.968;2023-02-23T03:44:58;100725.63;;;8.01;100.00
3444;BME280;1736;52.068;6.968;2023-02-23T03:47:45;100721.28;;;8.00;100.00
3444;BME280;1736;52.068;6.968;2023-02-23T03:50:33;100724.75;;;8.01;100.00
3444;BME280;1736;52.068;6.968;2023-02-23T03:53:22;100730.91;;;8.01;100.00
3444;BME280;1736;52.068;6.968;2023-02-23T03:56:09;100733.75;;;7.98;100.00
3444;BME280;1736;52.068;6.968;2023-02-23T03:58:58;100728.47;;;7.98;100.00
3444;BME280;1736;52.068;6.968;2023-02-23T04:01:45;100721.41;;;7.99;100.00
3444;BME280;1736;52.068;6.968;2023-02-23T04:04:32;100730.19;;;7.99;100.00
3444;BME280;1736;52.068;6.968;2023-02-23T04:07:18;100727.09;;;7.93;100.00
3444;BME280;1736;52.068;6.968;2023-02-23T04:10:04;100726.28;;;7.92;100.00
3444;BME280;1736;52.068;6.968;2023-02-23T04:12:54;100726.50;;;7.89;100.00
3444;BME280;1736;52.068;6.968;2023-02-23T04:15:44;100726.94;;;7.83;100.00
3444;BME280;1736;52.068;6.968;2023-02-23T04:18:15;100732.56;;;7.79;100.00
3444;BME280;1736;52.068;6.968;2023-02-23T04:20:42;100733.50;;;7.78;100.00
3444;BME280;1736;52.068;6.968;2023-02-23T04:23:09;100745.97;;;7.76;100.00
3444;BME280;1736;52.068;6.968;2023-02-23T04:25:35;100735.31;;;7.77;100.00
3444;BME280;1736;52.068;6.968;2023-02-23T04:28:02;100737.53;;;7.83;100.00
3444;BME280;1736;52.068;6.968;2023-02-23T04:30:28;100735.50;;;7.74;100.00
3444;BME280;1736;52.068;6.968;2023-02-23T04:32:55;100745.00;;;7.77;100.00
3444;BME280;1736;52.068;6.968;2023-02-23T04:35:25;100744.28;;;7.75;100.00
3444;BME280;1736;52.068;6.968;2023-02-23T04:37:52;100743.31;;;7.76;100.00
3444;BME280;1736;52.068;6.968;2023-02-23T04:40:20;100745.25;;;7.74;100.00
3444;BME280;1736;52.068;6.968;2023-02-23T04:42:46;100746.06;;;7.74;100.00
3444;BME280;1736;52.068;6.968;2023-02-23T04:45:13;100739.72;;;7.77;100.00
3444;BME280;1736;52.068;6.968;2023-02-23T04:47:39;100756.44;;;7.77;100.00
3444;BME280;1736;52.068;6.968;2023-02-23T04:50:07;100757.19;;;7.79;100.00
3444;BME280;1736;52.068;6.968;2023-02-23T04:52:36;100748.28;;;7.80;100.00
3444;BME280;1736;52.068;6.968;2023-02-23T04:55:04;100757.19;;;7.79;100.00
3444;BME280;1736;52.068;6.968;2023-02-23T04:57:31;100761.59;;;7.79;100.00
3444;BME280;1736;52.068;6.968;2023-02-23T04:59:57;100750.28;;;7.77;100.00
3444;BME280;1736;52.068;6.968;2023-02-23T05:02:24;100760.03;;;7.76;100.00
3444;BME280;1736;52.068;6.968;2023-02-23T05:04:51;100761.59;;;7.79;100.00
3444;BME280;1736;52.068;6.968;2023-02-23T05:07:17;100750.19;;;7.78;100.00
3444;BME280;1736;52.068;6.968;2023-02-23T05:09:45;100760.03;;;7.76;100.00
3444;BME280;1736;52.068;6.968;2023-02-23T05:12:12;100757.91;;;7.81;100.00
3444;BME280;1736;52.068;6.968;2023-02-23T05:14:38;100765.72;;;7.83;100.00
3444;BME280;1736;52.068;6.968;2023-02-23T05:17:05;100763.00;;;7.72;100.00
3444;BME280;1736;52.068;6.968;2023-02-23T05:19:32;100760.44;;;7.70;100.00
3444;BME280;1736;52.068;6.968;2023-02-23T05:21:59;100769.13;;;7.72;100.00
3444;BME280;1736;52.068;6.968;2023-02-23T05:24:25;100767.44;;;7.71;100.00
3444;BME280;1736;52.068;6.968;2023-02-23T05:26:53;100771.88;;;7.71;100.00
3444;BME280;1736;52.068;6.968;2023-02-23T05:29:20;100767.75;;;7.67;100.00
3444;BME280;1736;52.068;6.968;2023-02-23T05:31:46;100768.28;;;7.72;100.00
3444;BME280;1736;52.068;6.968;2023-02-23T05:34:13;100768.63;;;7.67;100.00
3444;BME280;1736;52.068;6.968;2023-02-23T05:36:41;100768.50;;;7.69;100.00
3444;BME280;1736;52.068;6.968;2023-02-23T05:39:08;100763.44;;;7.66;100.00
3444;BME280;1736;52.068;6.968;2023-02-23T05:41:35;100765.44;;;7.62;100.00
3444;BME280;1736;52.068;6.968;2023-02-23T05:44:03;100762.91;;;7.61;100.00
3444;BME280;1736;52.068;6.968;2023-02-23T05:46:29;100760.69;;;7.67;100.00
3444;BME280;1736;52.068;6.968;2023-02-23T05:48:57;100766.19;;;7.64;100.00
3444;BME280;1736;52.068;6.968;2023-02-23T05:51:26;100765.22;;;7.65;100.00
3444;BME280;1736;52.068;6.968;2023-02-23T05:53:53;100763.44;;;7.53;100.00
3444;BME280;1736;52.068;6.968;2023-02-23T05:56:20;100760.69;;;7.55;100.00
3444;BME280;1736;52.068;6.968;2023-02-23T05:58:46;100761.53;;;7.55;100.00
3444;BME280;1736;52.068;6.968;2023-02-23T06:01:15;100765.66;;;7.59;100.00
3444;BME280;1736;52.068;6.968;2023-02-23T06:03:42;100770.84;;;7.61;100.00
3444;BME280;1736;52.068;6.968;2023-02-23T06:06:10;100773.59;;;7.59;100.00
3444;BME280;1736;52.068;6.968;2023-02-23T06:08:37;100776.94;;;7.61;100.00
3444;BME280;1736;52.068;6.968;2023-02-23T06:11:04;100778.88;;;7.59;100.00
3444;BME280;1736;52.068;6.968;2023-02-23T06:13:31;100782.13;;;7.50;100.00
3444;BME280;1736;52.068;6.968;2023-02-23T06:15:58;100783.41;;;7.57;100.00
3444;BME280;1736;52.068;6.968;2023-02-23T06:18:26;100786.47;;;7.51;100.00
3444;BME280;1736;52.068;6.968;2023-02-23T06:20:53;100796.81;;;7.54;100.00
3444;BME280;1736;52.068;6.968;2023-02-23T06:23:20;100789.31;;;7.61;100.00
3444;BME280;1736;52.068;6.968;2023-02-23T06:25:47;100796.59;;;7.57;100.00
3444;BME280;1736;52.068;6.968;2023-02-23T06:28:14;100803.81;;;7.55;100.00
3444;BME280;1736;52.068;6.968;2023-02-23T06:30:40;100801.66;;;7.48;100.00
3444;BME280;1736;52.068;6.968;2023-02-23T06:33:08;100804.19;;;7.49;100.00
3444;BME280;1736;52.068;6.968;2023-02-23T06:35:36;100801.47;;;7.51;100.00
3444;BME280;1736;52.068;6.968;2023-02-23T06:38:03;100807.38;;;7.54;100.00
3444;BME280;1736;52.068;6.968;2023-02-23T06:40:30;100811.81;;;7.41;100.00
3444;BME280;1736;52.068;6.968;2023-02-23T06:42:57;100808.44;;;7.39;100.00
3444;BME280;1736;52.068;6.968;2023-02-23T06:45:25;100810.31;;;7.37;100.00
3444;BME280;1736;52.068;6.968;2023-02-23T06:47:51;100814.66;;;7.51;100.00
3444;BME280;1736;52.068;6.968;2023-02-23T06:50:18;100816.03;;;7.44;100.00
3444;BME280;1736;52.068;6.968;2023-02-23T06:52:46;100813.09;;;7.48;100.00
3444;BME280;1736;52.068;6.968;2023-02-23T06:55:13;100813.38;;;7.44;100.00
3444;BME280;1736;52.068;6.968;2023-02-23T06:57:41;100821.53;;;7.53;100.00
3444;BME280;1736;52.068;6.968;2023-02-23T07:00:09;100817.41;;;7.49;100.00
3444;BME280;1736;52.068;6.968;2023-02-23T07:02:36;100823.66;;;7.48;100.00
3444;BME280;1736;52.068;6.968;2023-02-23T07:05:03;100828.94;;;7.48;100.00
3444;BME280;1736;52.068;6.968;2023-02-23T07:07:30;100828.19;;;7.59;100.00
3444;BME280;1736;52.068;6.968;2023-02-23T07:09:58;100839.06;;;7.54;100.00
3444;BME280;1736;52.068;6.968;2023-02-23T07:12:25;100825.22;;;7.51;100.00
3444;BME280;1736;52.068;6.968;2023-02-23T07:14:51;100830.81;;;7.59;100.00
3444;BME280;1736;52.068;6.968;2023-02-23T07:17:18;100840.53;;;7.58;100.00
3444;BME280;1736;52.068;6.968;2023-02-23T07:19:44;100833.06;;;7.52;100.00
3444;BME280;1736;52.068;6.968;2023-02-23T07:22:11;100831.28;;;7.53;100.00
3444;BME280;1736;52.068;6.968;2023-02-23T07:24:37;100835.69;;;7.52;100.00
3444;BME280;1736;52.068;6.968;2023-02-23T07:27:05;100842.84;;;7.50;100.00
3444;BME280;1736;52.068;6.968;2023-02-23T07:29:32;100847.53;;;7.59;100.00
3444;BME280;1736;52.068;6.968;2023-02-23T07:31:59;100845.41;;;7.52;100.00
3444;BME280;1736;52.068;6.968;2023-02-23T07:34:25;100854.91;;;7.54;100.00
3444;BME280;1736;52.068;6.968;2023-02-23T07:36:52;100858.94;;;7.47;100.00
3444;BME280;1736;52.068;6.968;2023-02-23T07:39:18;100865.47;;;7.42;100.00
3444;BME280;1736;52.068;6.968;2023-02-23T07:41:45;100861.88;;;7.43;100.00
3444;BME280;1736;52.068;6.968;2023-02-23T07:44:13;100864.41;;;7.44;100.00
3444;BME280;1736;52.068;6.968;2023-02-23T07:46:39;100861.44;;;7.36;100.00
3444;BME280;1736;52.068;6.968;2023-02-23T07:49:07;100875.38;;;7.38;100.00
3444;BME280;1736;52.068;6.968;2023-02-23T07:51:34;100866.72;;;7.36;100.00
3444;BME280;1736;52.068;6.968;2023-02-23T07:54:02;100872.19;;;7.33;100.00
3444;BME280;1736;52.068;6.968;2023-02-23T07:56:29;100878.44;;;7.32;100.00
3444;BME280;1736;52.068;6.968;2023-02-23T07:58:56;100881.59;;;7.37;100.00
3444;BME280;1736;52.068;6.968;2023-02-23T08:01:24;100874.31;;;7.28;100.00
3444;BME280;1736;52.068;6.968;2023-02-23T08:03:50;100886.03;;;7.24;100.00
3444;BME280;1736;52.068;6.968;2023-02-23T08:06:18;100887.41;;;7.30;100.00
3444;BME280;1736;52.068;6.968;2023-02-23T08:08:44;100894.41;;;7.43;100.00
3444;BME280;1736;52.068;6.968;2023-02-23T08:11:13;100891.84;;;7.29;100.00
3444;BME280;1736;52.068;6.968;2023-02-23T08:13:40;100891.63;;;7.32;100.00
3444;BME280;1736;52.068;6.968;2023-02-23T08:16:09;100893.84;;;7.38;100.00
3444;BME280;1736;52.068;6.968;2023-02-23T08:18:38;100898.94;;;7.41;100.00
3444;BME280;1736;52.068;6.968;2023-02-23T08:21:05;100898.50;;;7.35;100.00
3444;BME280;1736;52.068;6.968;2023-02-23T08:23:32;100907.38;;;7.46;100.00
3444;BME280;1736;52.068;6.968;2023-02-23T08:25:59;100905.16;;;7.40;100.00
3444;BME280;1736;52.068;6.968;2023-02-23T08:28:27;100892.50;;;7.45;100.00
3444;BME280;1736;52.068;6.968;2023-02-23T08:30:53;100906.56;;;7.46;100.00
3444;BME280;1736;52.068;6.968;2023-02-23T08:33:20;100904.53;;;7.49;100.00
3444;BME280;1736;52.068;6.968;2023-02-23T08:35:48;100901.28;;;7.58;100.00
3444;BME280;1736;52.068;6.968;2023-02-23T08:38:17;100902.09;;;7.46;100.00
3444;BME280;1736;52.068;6.968;2023-02-23T08:40:44;100909.09;;;7.47;100.00
3444;BME280;1736;52.068;6.968;2023-02-23T08:43:11;100914.38;;;7.47;100.00
3444;BME280;1736;52.068;6.968;2023-02-23T08:45:37;100911.84;;;7.46;100.00
3444;BME280;1736;52.068;6.968;2023-02-23T08:48:04;100910.25;;;7.43;100.00
3444;BME280;1736;52.068;6.968;2023-02-23T08:50:31;100920.59;;;7.46;100.00
3444;BME280;1736;52.068;6.968;2023-02-23T08:52:59;100917.13;;;7.58;100.00
3444;BME280;1736;52.068;6.968;2023-02-23T08:55:26;100911.00;;;7.58;100.00
3444;BME280;1736;52.068;6.968;2023-02-23T08:57:52;100920.00;;;7.55;100.00
3444;BME280;1736;52.068;6.968;2023-02-23T09:00:20;100912.78;;;7.57;100.00
3444;BME280;1736;52.068;6.968;2023-02-23T09:02:47;100919.38;;;7.64;100.00
3444;BME280;1736;52.068;6.968;2023-02-23T09:05:17;100916.41;;;7.56;100.00
3444;BME280;1736;52.068;6.968;2023-02-23T09:07:45;100915.34;;;7.59;100.00
3444;BME280;1736;52.068;6.968;2023-02-23T09:10:15;100923.13;;;7.48;100.00
3444;BME280;1736;52.068;6.968;2023-02-23T09:12:44;100930.56;;;7.55;100.00
3444;BME280;1736;52.068;6.968;2023-02-23T09:15:11;100934.25;;;7.53;100.00
3444;BME280;1736;52.068;6.968;2023-02-23T09:17:37;100934.53;;;7.48;100.00
3444;BME280;1736;52.068;6.968;2023-02-23T09:20:08;100931.38;;;7.43;100.00
3444;BME280;1736;52.068;6.968;2023-02-23T09:22:38;100938.25;;;7.58;100.00
3444;BME280;1736;52.068;6.968;2023-02-23T09:25:05;100937.00;;;7.64;100.00
3444;BME280;1736;52.068;6.968;2023-02-23T09:27:34;100939.72;;;7.62;100.00
3444;BME280;1736;52.068;6.968;2023-02-23T09:30:01;100941.97;;;7.68;100.00
3444;BME280;1736;52.068;6.968;2023-02-23T09:32:28;100944.09;;;7.76;100.00
3444;BME280;1736;52.068;6.968;2023-02-23T09:34:54;100940.28;;;7.67;100.00
3444;BME280;1736;52.068;6.968;2023-02-23T09:37:21;100941.66;;;7.73;100.00
3444;BME280;1736;52.068;6.968;2023-02-23T09:39:49;100943.25;;;7.75;100.00
3444;BME280;1736;52.068;6.968;2023-02-23T09:42:22;100949.69;;;7.84;100.00
3444;BME280;1736;52.068;6.968;2023-02-23T09:45:00;100954.88;;;7.85;100.00
3444;BME280;1736;52.068;6.968;2023-02-23T09:47:32;100951.91;;;7.77;100.00
3444;BME280;1736;52.068;6.968;2023-02-23T09:50:13;100964.06;;;7.80;100.00
3444;BME280;1736;52.068;6.968;2023-02-23T09:52:44;100951.19;;;7.88;100.00
3444;BME280;1736;52.068;6.968;2023-02-23T09:55:13;100956.38;;;7.89;100.00
3444;BME280;1736;52.068;6.968;2023-02-23T09:57:42;100955.50;;;7.89;100.00
3444;BME280;1736;52.068;6.968;2023-02-23T10:00:16;100959.53;;;7.94;100.00
3444;BME280;1736;52.068;6.968;2023-02-23T10:03:01;100964.19;;;8.03;100.00
3444;BME280;1736;52.068;6.968;2023-02-23T10:05:37;100963.97;;;8.06;100.00
3444;BME280;1736;52.068;6.968;2023-02-23T10:08:06;100969.91;;;7.97;100.00
3444;BME280;1736;52.068;6.968;2023-02-23T10:10:42;100963.25;;;8.04;100.00
3444;BME280;1736;52.068;6.968;2023-02-23T10:13:16;100978.16;;;8.05;100.00
3444;BME280;1736;52.068;6.968;2023-02-23T10:15:51;100969.47;;;8.16;100.00
3444;BME280;1736;52.068;6.968;2023-02-23T10:18:26;100971.19;;;8.04;100.00
3444;BME280;1736;52.068;6.968;2023-02-23T10:21:01;100967.78;;;8.15;100.00
3444;BME280;1736;52.068;6.968;2023-02-23T10:23:33;100967.38;;;8.08;100.00
3444;BME280;1736;52.068;6.968;2023-02-23T10:26:04;100969.03;;;7.97;100.00
3444;BME280;1736;52.068;6.968;2023-02-23T10:28:34;100970.53;;;8.01;100.00
3444;BME280;1736;52.068;6.968;2023-02-23T10:31:06;100970.19;;;7.93;100.00
3444;BME280;1736;52.068;6.968;2023-02-23T10:33:42;100969.91;;;7.97;100.00
3444;BME280;1736;52.068;6.968;2023-02-23T10:36:12;100970.22;;;8.05;100.00
3444;BME280;1736;52.068;6.968;2023-02-23T10:38:40;100969.47;;;8.03;100.00
3444;BME280;1736;52.068;6.968;2023-02-23T10:41:08;100966.53;;;8.08;100.00
3444;BME280;1736;52.068;6.968;2023-02-23T10:43:36;100972.03;;;8.17;100.00
3444;BME280;1736;52.068;6.968;2023-02-23T10:46:05;100978.06;;;8.32;100.00
3444;BME280;1736;52.068;6.968;2023-02-23T10:48:36;100980.72;;;8.44;100.00
3444;BME280;1736;52.068;6.968;2023-02-23T10:51:13;100984.50;;;8.53;100.00
3444;BME280;1736;52.068;6.968;2023-02-23T10:53:42;100987.66;;;8.58;100.00
3444;BME280;1736;52.068;6.968;2023-02-23T10:56:10;100972.84;;;8.55;100.00
3444;BME280;1736;52.068;6.968;2023-02-23T10:58:39;100985.56;;;8.50;100.00
3444;BME280;1736;52.068;6.968;2023-02-23T11:01:09;100978.59;;;8.49;100.00
3444;BME280;1736;52.068;6.968;2023-02-23T11:03:38;100980.47;;;8.60;100.00
3444;BME280;1736;52.068;6.968;2023-02-23T11:06:06;100989.38;;;8.46;100.00
3444;BME280;1736;52.068;6.968;2023-02-23T11:08:34;100980.16;;;8.52;100.00
3444;BME280;1736;52.068;6.968;2023-02-23T11:11:17;100981.97;;;8.51;100.00
3444;BME280;1736;52.068;6.968;2023-02-23T11:13:46;100984.91;;;8.59;100.00
3444;BME280;1736;52.068;6.968;2023-02-23T11:16:16;100988.31;;;8.49;100.00
3444;BME280;1736;52.068;6.968;2023-02-23T11:18:50;100997.00;;;8.51;100.00
3444;BME280;1736;52.068;6.968;2023-02-23T11:21:22;100988.53;;;8.33;100.00
3444;BME280;1736;52.068;6.968;2023-02-23T11:23:51;100990.00;;;8.25;100.00
3444;BME280;1736;52.068;6.968;2023-02-23T11:26:31;100982.50;;;8.31;100.00
3444;BME280;1736;52.068;6.968;2023-02-23T11:29:08;100983.66;;;8.27;100.00
3444;BME280;1736;52.068;6.968;2023-02-23T11:31:39;100981.44;;;8.46;100.00
3444;BME280;1736;52.068;6.968;2023-02-23T11:34:19;100987.19;;;8.40;100.00
3444;BME280;1736;52.068;6.968;2023-02-23T11:36:57;100983.22;;;8.46;100.00
3444;BME280;1736;52.068;6.968;2023-02-23T11:39:24;100978.38;;;8.52;100.00
3444;BME280;1736;52.068;6.968;2023-02-23T11:42:12;100974.13;;;8.62;100.00
3444;BME280;1736;52.068;6.968;2023-02-23T11:44:40;100979.19;;;8.65;100.00
3444;BME280;1736;52.068;6.968;2023-02-23T11:47:15;100977.31;;;8.55;100.00
3444;BME280;1736;52.068;6.968;2023-02-23T11:49:44;100979.22;;;8.53;100.00
3444;BME280;1736;52.068;6.968;2023-02-23T11:52:14;100983.03;;;8.49;100.00
3444;BME280;1736;52.068;6.968;2023-02-23T11:54:49;100982.06;;;8.50;100.00
3444;BME280;1736;52.068;6.968;2023-02-23T11:57:21;100979.25;;;8.40;100.00
3444;BME280;1736;52.068;6.968;2023-02-23T11:59:48;100975.13;;;8.36;100.00
3444;BME280;1736;52.068;6.968;2023-02-23T12:02:22;100980.06;;;8.41;100.00
3444;BME280;1736;52.068;6.968;2023-02-23T12:04:50;100973.50;;;8.34;100.00
3444;BME280;1736;52.068;6.968;2023-02-23T12:07:30;100979.44;;;8.37;100.00
3444;BME280;1736;52.068;6.968;2023-02-23T12:10:09;100973.41;;;8.35;100.00
3444;BME280;1736;52.068;6.968;2023-02-23T12:12:44;100985.25;;;8.42;100.00
3444;BME280;1736;52.068;6.968;2023-02-23T12:15:20;100979.00;;;8.43;100.00
3444;BME280;1736;52.068;6.968;2023-02-23T12:17:52;100975.22;;;8.35;100.00
3444;BME280;1736;52.068;6.968;2023-02-23T12:20:23;100974.47;;;8.33;100.00
3444;BME280;1736;52.068;6.968;2023-02-23T12:22:53;100975.75;;;8.27;100.00
3444;BME280;1736;52.068;6.968;2023-02-23T12:25:24;100982.09;;;8.37;100.00
3444;BME280;1736;52.068;6.968;2023-02-23T12:27:58;100975.53;;;8.18;100.00
3444;BME280;1736;52.068;6.968;2023-02-23T12:30:37;100972.69;;;8.21;100.00
3444;BME280;1736;52.068;6.968;2023-02-23T12:33:10;100977.09;;;8.20;100.00
3444;BME280;1736;52.068;6.968;2023-02-23T12:35:43;100975.38;;;8.19;100.00
3444;BME280;1736;52.068;6.968;2023-02-23T12:38:16;100979.19;;;8.15;100.00
3444;BME280;1736;52.068;6.968;2023-02-23T12:40:55;100978.63;;;8.24;100.00
3444;BME280;1736;52.068;6.968;2023-02-23T12:43:28;100975.41;;;8.07;100.00
3444;BME280;1736;52.068;6.968;2023-02-23T12:46:04;100977.28;;;8.05;100.00
3444;BME280;1736;52.068;6.968;2023-02-23T12:48:47;100985.13;;;8.06;100.00
3444;BME280;1736;52.068;6.968;2023-02-23T12:51:23;100987.25;;;8.14;100.00
3444;BME280;1736;52.068;6.968;2023-02-23T12:53:50;100984.50;;;8.03;100.00
3444;BME280;1736;52.068;6.968;2023-02-23T12:56:34;100986.59;;;8.10;100.00
3444;BME280;1736;52.068;6.968;2023-02-23T12:59:19;100986.72;;;7.96;100.00
3444;BME280;1736;52.068;6.968;2023-02-23T13:01:54;100990.50;;;7.92;100.00
3444;BME280;1736;52.068;6.968;2023-02-23T13:07:20;100991.22;;;7.69;100.00
3444;BME280;1736;52.068;6.968;2023-02-23T13:09:57;100991.97;;;7.71;100.00
3444;BME280;1736;52.068;6.968;2023-02-23T13:12:37;100994.72;;;7.70;100.00
3444;BME280;1736;52.068;6.968;2023-02-23T13:15:17;100993.94;;;7.68;100.00
3444;BME280;1736;52.068;6.968;2023-02-23T13:17:53;100998.59;;;7.77;100.00
3444;BME280;1736;52.068;6.968;2023-02-23T13:20:25;100996.91;;;7.76;100.00
3444;BME280;1736;52.068;6.968;2023-02-23T13:23:02;100996.09;;;7.75;100.00
3444;BME280;1736;52.068;6.968;2023-02-23T13:25:42;101000.41;;;7.76;100.00
3444;BME280;1736;52.068;6.968;2023-02-23T13:28:16;101001.56;;;7.72;100.00
3444;BME280;1736;52.068;6.968;2023-02-23T13:30:46;100998.59;;;7.64;100.00
3444;BME280;1736;52.068;6.968;2023-02-23T13:33:25;100996.25;;;7.60;100.00
3444;BME280;1736;52.068;6.968;2023-02-23T13:35:54;100999.41;;;7.52;100.00
3444;BME280;1736;52.068;6.968;2023-02-23T13:38:29;100999.59;;;7.49;100.00
3444;BME280;1736;52.068;6.968;2023-02-23T13:41:06;100998.97;;;7.46;100.00